sensor_id;sensor_type;location;lat;lon;timestamp;P1;durP1;ratioP1;P2;durP2;ratioP2
78489;SDS011;67776;52.012;4.736;2023-07-30T00:02:15;11.43;;;2.50;;
78489;SDS011;67776;52.012;4.736;2023-07-30T00:04:41;13.70;;;2.92;;
78489;SDS011;67776;52.012;4.736;2023-07-30T00:07:07;15.50;;;2.80;;
78489;SDS011;67776;52.012;4.736;2023-07-30T00:09:32;13.83;;;2.60;;
78489;SDS011;67776;52.012;4.736;2023-07-30T00:11:57;13.30;;;3.13;;
78489;SDS011;67776;52.012;4.736;2023-07-30T00:14:23;11.30;;;2.33;;
78489;SDS011;67776;52.012;4.736;2023-07-30T00:16:48;11.53;;;2.30;;
78489;SDS011;67776;52.012;4.736;2023-07-30T00:19:14;13.47;;;2.47;;
78489;SDS011;67776;52.012;4.736;2023-07-30T00:21:39;11.05;;;2.20;;
78489;SDS011;67776;52.012;4.736;2023-07-30T00:24:04;12.43;;;2.90;;
78489;SDS011;67776;52.012;4.736;2023-07-30T00:26:30;16.03;;;2.93;;
78489;SDS011;67776;52.012;4.736;2023-07-30T00:28:55;11.27;;;2.23;;
78489;SDS011;67776;52.012;4.736;2023-07-30T00:31:20;13.20;;;2.67;;
78489;SDS011;67776;52.012;4.736;2023-07-30T00:33:46;13.63;;;3.27;;
78489;SDS011;67776;52.012;4.736;2023-07-30T00:36:11;12.07;;;2.60;;
78489;SDS011;67776;52.012;4.736;2023-07-30T00:38:37;13.77;;;2.53;;
78489;SDS011;67776;52.012;4.736;2023-07-30T00:41:02;18.63;;;2.80;;
78489;SDS011;67776;52.012;4.736;2023-07-30T00:43:27;9.20;;;2.37;;
78489;SDS011;67776;52.012;4.736;2023-07-30T00:45:52;11.10;;;2.50;;
78489;SDS011;67776;52.012;4.736;2023-07-30T00:48:18;15.50;;;2.65;;
78489;SDS011;67776;52.012;4.736;2023-07-30T00:50:43;10.87;;;2.83;;
78489;SDS011;67776;52.012;4.736;2023-07-30T00:53:09;15.33;;;3.13;;
78489;SDS011;67776;52.012;4.736;2023-07-30T00:55:39;13.82;;;2.70;;
78489;SDS011;67776;52.012;4.736;2023-07-30T00:58:04;16.57;;;3.00;;
78489;SDS011;67776;52.012;4.736;2023-07-30T01:00:30;13.85;;;2.80;;
78489;SDS011;67776;52.012;4.736;2023-07-30T01:02:56;13.90;;;2.50;;
78489;SDS011;67776;52.012;4.736;2023-07-30T01:05:22;12.98;;;3.30;;
78489;SDS011;67776;52.012;4.736;2023-07-30T01:07:47;9.63;;;2.70;;
78489;SDS011;67776;52.012;4.736;2023-07-30T01:10:13;11.83;;;3.07;;
78489;SDS011;67776;52.012;4.736;2023-07-30T01:12:40;16.15;;;2.40;;
78489;SDS011;67776;52.012;4.736;2023-07-30T01:15:07;15.52;;;2.60;;
78489;SDS011;67776;52.012;4.736;2023-07-30T01:17:34;13.68;;;2.70;;
78489;SDS011;67776;52.012;4.736;2023-07-30T01:19:59;14.13;;;2.70;;
78489;SDS011;67776;52.012;4.736;2023-07-30T01:22:25;16.37;;;2.50;;
78489;SDS011;67776;52.012;4.736;2023-07-30T01:24:50;14.07;;;3.60;;
78489;SDS011;67776;52.012;4.736;2023-07-30T01:27:17;20.37;;;4.07;;
78489;SDS011;67776;52.012;4.736;2023-07-30T01:32:43;24.60;;;3.73;;
78489;SDS011;67776;52.012;4.736;2023-07-30T01:35:13;11.80;;;2.70;;
78489;SDS011;67776;52.012;4.736;2023-07-30T01:37:39;12.63;;;2.88;;
78489;SDS011;67776;52.012;4.736;2023-07-30T01:40:07;15.80;;;3.47;;
78489;SDS011;67776;52.012;4.736;2023-07-30T01:42:34;14.43;;;3.33;;
78489;SDS011;67776;52.012;4.736;2023-07-30T01:44:59;11.18;;;2.50;;
78489;SDS011;67776;52.012;4.736;2023-07-30T01:47:25;14.17;;;3.20;;
78489;SDS011;67776;52.012;4.736;2023-07-30T01:49:50;15.07;;;2.80;;
78489;SDS011;67776;52.012;4.736;2023-07-30T01:52:15;20.80;;;3.43;;
78489;SDS011;67776;52.012;4.736;2023-07-30T01:54:41;11.57;;;2.70;;
78489;SDS011;67776;52.012;4.736;2023-07-30T01:57:07;13.68;;;2.95;;
78489;SDS011;67776;52.012;4.736;2023-07-30T01:59:32;14.83;;;2.90;;
78489;SDS011;67776;52.012;4.736;2023-07-30T02:01:58;13.00;;;3.30;;
78489;SDS011;67776;52.012;4.736;2023-07-30T02:04:23;11.32;;;2.85;;
78489;SDS011;67776;52.012;4.736;2023-07-30T02:06:48;13.87;;;3.03;;
78489;SDS011;67776;52.012;4.736;2023-07-30T02:09:14;13.93;;;3.10;;
78489;SDS011;67776;52.012;4.736;2023-07-30T02:11:39;16.63;;;3.30;;
78489;SDS011;67776;52.012;4.736;2023-07-30T02:14:04;15.07;;;3.03;;
78489;SDS011;67776;52.012;4.736;2023-07-30T02:16:30;12.93;;;3.57;;
78489;SDS011;67776;52.012;4.736;2023-07-30T02:18:55;17.93;;;3.33;;
78489;SDS011;67776;52.012;4.736;2023-07-30T02:21:20;16.45;;;3.40;;
78489;SDS011;67776;52.012;4.736;2023-07-30T02:23:46;16.90;;;3.20;;
78489;SDS011;67776;52.012;4.736;2023-07-30T02:26:11;15.20;;;3.60;;
78489;SDS011;67776;52.012;4.736;2023-07-30T02:28:36;20.93;;;4.10;;
78489;SDS011;67776;52.012;4.736;2023-07-30T02:31:02;15.43;;;3.60;;
78489;SDS011;67776;52.012;4.736;2023-07-30T02:33:27;17.93;;;3.60;;
78489;SDS011;67776;52.012;4.736;2023-07-30T02:35:52;19.87;;;3.33;;
78489;SDS011;67776;52.012;4.736;2023-07-30T02:38:18;16.93;;;3.40;;
78489;SDS011;67776;52.012;4.736;2023-07-30T02:40:43;16.73;;;4.20;;
78489;SDS011;67776;52.012;4.736;2023-07-30T02:43:08;22.27;;;3.50;;
78489;SDS011;67776;52.012;4.736;2023-07-30T02:45:34;16.77;;;4.00;;
78489;SDS011;67776;52.012;4.736;2023-07-30T02:47:59;19.37;;;3.50;;
78489;SDS011;67776;52.012;4.736;2023-07-30T02:50:24;19.53;;;4.00;;
78489;SDS011;67776;52.012;4.736;2023-07-30T02:52:50;17.73;;;3.70;;
78489;SDS011;67776;52.012;4.736;2023-07-30T02:55:15;18.07;;;4.07;;
78489;SDS011;67776;52.012;4.736;2023-07-30T02:57:41;20.25;;;4.15;;
78489;SDS011;67776;52.012;4.736;2023-07-30T03:00:06;17.73;;;3.67;;
78489;SDS011;67776;52.012;4.736;2023-07-30T03:02:33;23.65;;;4.93;;
78489;SDS011;67776;52.012;4.736;2023-07-30T03:04:59;17.67;;;3.67;;
78489;SDS011;67776;52.012;4.736;2023-07-30T03:07:24;19.43;;;3.83;;
78489;SDS011;67776;52.012;4.736;2023-07-30T03:09:50;18.33;;;3.75;;
78489;SDS011;67776;52.012;4.736;2023-07-30T03:12:15;22.20;;;4.00;;
78489;SDS011;67776;52.012;4.736;2023-07-30T03:14:40;17.63;;;4.70;;
78489;SDS011;67776;52.012;4.736;2023-07-30T03:17:06;22.27;;;5.00;;
78489;SDS011;67776;52.012;4.736;2023-07-30T03:19:31;21.55;;;4.13;;
78489;SDS011;67776;52.012;4.736;2023-07-30T03:21:57;20.57;;;4.30;;
78489;SDS011;67776;52.012;4.736;2023-07-30T03:24:22;22.10;;;4.90;;
78489;SDS011;67776;52.012;4.736;2023-07-30T03:26:47;27.70;;;4.87;;
78489;SDS011;67776;52.012;4.736;2023-07-30T03:29:14;18.13;;;4.55;;
78489;SDS011;67776;52.012;4.736;2023-07-30T03:31:40;24.90;;;4.53;;
78489;SDS011;67776;52.012;4.736;2023-07-30T03:34:06;15.95;;;4.30;;
78489;SDS011;67776;52.012;4.736;2023-07-30T03:36:31;20.97;;;4.53;;
78489;SDS011;67776;52.012;4.736;2023-07-30T03:38:56;26.53;;;4.67;;
78489;SDS011;67776;52.012;4.736;2023-07-30T03:41:22;24.87;;;5.40;;
78489;SDS011;67776;52.012;4.736;2023-07-30T03:43:47;21.53;;;4.60;;
78489;SDS011;67776;52.012;4.736;2023-07-30T03:46:13;25.38;;;4.82;;
78489;SDS011;67776;52.012;4.736;2023-07-30T03:48:38;30.40;;;5.17;;
78489;SDS011;67776;52.012;4.736;2023-07-30T03:51:03;27.40;;;4.90;;
78489;SDS011;67776;52.012;4.736;2023-07-30T03:53:29;23.93;;;5.47;;
78489;SDS011;67776;52.012;4.736;2023-07-30T03:55:54;24.53;;;4.97;;
78489;SDS011;67776;52.012;4.736;2023-07-30T03:58:19;22.13;;;4.77;;
78489;SDS011;67776;52.012;4.736;2023-07-30T04:00:45;23.33;;;5.23;;
78489;SDS011;67776;52.012;4.736;2023-07-30T04:03:10;20.77;;;4.47;;
78489;SDS011;67776;52.012;4.736;2023-07-30T04:05:35;20.70;;;4.63;;
78489;SDS011;67776;52.012;4.736;2023-07-30T04:08:01;21.97;;;4.90;;
78489;SDS011;67776;52.012;4.736;2023-07-30T04:10:26;26.77;;;5.30;;
78489;SDS011;67776;52.012;4.736;2023-07-30T04:12:52;22.40;;;5.13;;
78489;SDS011;67776;52.012;4.736;2023-07-30T04:15:17;27.43;;;4.90;;
78489;SDS011;67776;52.012;4.736;2023-07-30T04:17:42;21.45;;;5.00;;
78489;SDS011;67776;52.012;4.736;2023-07-30T04:20:08;26.73;;;4.60;;
78489;SDS011;67776;52.012;4.736;2023-07-30T04:22:34;28.65;;;4.88;;
78489;SDS011;67776;52.012;4.736;2023-07-30T04:25:00;25.63;;;5.10;;
78489;SDS011;67776;52.012;4.736;2023-07-30T04:27:26;24.17;;;4.70;;
78489;SDS011;67776;52.012;4.736;2023-07-30T04:29:51;21.80;;;4.63;;
78489;SDS011;67776;52.012;4.736;2023-07-30T04:32:16;23.40;;;4.80;;
78489;SDS011;67776;52.012;4.736;2023-07-30T04:34:42;23.00;;;4.40;;
78489;SDS011;67776;52.012;4.736;2023-07-30T04:37:07;21.07;;;4.40;;
78489;SDS011;67776;52.012;4.736;2023-07-30T04:39:33;27.13;;;5.07;;
78489;SDS011;67776;52.012;4.736;2023-07-30T04:41:58;22.37;;;4.27;;
78489;SDS011;67776;52.012;4.736;2023-07-30T04:44:23;25.30;;;4.50;;
78489;SDS011;67776;52.012;4.736;2023-07-30T04:46:49;22.83;;;4.57;;
78489;SDS011;67776;52.012;4.736;2023-07-30T04:49:14;28.67;;;5.20;;
78489;SDS011;67776;52.012;4.736;2023-07-30T04:51:40;24.38;;;4.90;;
78489;SDS011;67776;52.012;4.736;2023-07-30T04:54:05;25.03;;;5.37;;
78489;SDS011;67776;52.012;4.736;2023-07-30T04:56:30;24.73;;;4.70;;
78489;SDS011;67776;52.012;4.736;2023-07-30T04:58:56;26.77;;;4.80;;
78489;SDS011;67776;52.012;4.736;2023-07-30T05:01:21;24.83;;;5.33;;
78489;SDS011;67776;52.012;4.736;2023-07-30T05:03:46;21.30;;;4.97;;
78489;SDS011;67776;52.012;4.736;2023-07-30T05:06:12;21.30;;;5.00;;
78489;SDS011;67776;52.012;4.736;2023-07-30T05:08:37;22.70;;;5.47;;
78489;SDS011;67776;52.012;4.736;2023-07-30T05:11:02;26.77;;;5.07;;
78489;SDS011;67776;52.012;4.736;2023-07-30T05:13:28;21.57;;;4.53;;
78489;SDS011;67776;52.012;4.736;2023-07-30T05:15:53;23.63;;;5.33;;
78489;SDS011;67776;52.012;4.736;2023-07-30T05:18:18;19.03;;;4.53;;
78489;SDS011;67776;52.012;4.736;2023-07-30T05:20:45;25.90;;;4.90;;
78489;SDS011;67776;52.012;4.736;2023-07-30T05:23:11;22.38;;;5.07;;
78489;SDS011;67776;52.012;4.736;2023-07-30T05:25:36;21.07;;;4.90;;
78489;SDS011;67776;52.012;4.736;2023-07-30T05:28:01;33.53;;;6.07;;
78489;SDS011;67776;52.012;4.736;2023-07-30T05:30:27;20.20;;;4.63;;
78489;SDS011;67776;52.012;4.736;2023-07-30T05:32:52;20.57;;;4.53;;
78489;SDS011;67776;52.012;4.736;2023-07-30T05:35:18;21.87;;;6.20;;
78489;SDS011;67776;52.012;4.736;2023-07-30T05:37:43;24.27;;;5.13;;
78489;SDS011;67776;52.012;4.736;2023-07-30T05:40:09;25.87;;;5.10;;
78489;SDS011;67776;52.012;4.736;2023-07-30T05:42:34;35.47;;;6.13;;
78489;SDS011;67776;52.012;4.736;2023-07-30T05:45:00;22.37;;;5.07;;
78489;SDS011;67776;52.012;4.736;2023-07-30T05:47:25;20.63;;;5.93;;
78489;SDS011;67776;52.012;4.736;2023-07-30T05:49:50;22.00;;;5.97;;
78489;SDS011;67776;52.012;4.736;2023-07-30T05:52:16;27.57;;;5.67;;
78489;SDS011;67776;52.012;4.736;2023-07-30T05:54:41;19.83;;;6.10;;
78489;SDS011;67776;52.012;4.736;2023-07-30T05:57:06;18.63;;;5.40;;
78489;SDS011;67776;52.012;4.736;2023-07-30T05:59:32;28.73;;;5.53;;
78489;SDS011;67776;52.012;4.736;2023-07-30T06:02:01;19.97;;;5.77;;
78489;SDS011;67776;52.012;4.736;2023-07-30T06:04:27;25.42;;;5.40;;
78489;SDS011;67776;52.012;4.736;2023-07-30T06:06:53;19.63;;;5.40;;
78489;SDS011;67776;52.012;4.736;2023-07-30T06:09:18;18.15;;;5.20;;
78489;SDS011;67776;52.012;4.736;2023-07-30T06:11:44;20.87;;;5.20;;
78489;SDS011;67776;52.012;4.736;2023-07-30T06:14:09;25.70;;;5.23;;
78489;SDS011;67776;52.012;4.736;2023-07-30T06:16:34;19.93;;;4.60;;
78489;SDS011;67776;52.012;4.736;2023-07-30T06:18:59;18.27;;;4.67;;
78489;SDS011;67776;52.012;4.736;2023-07-30T06:21:25;20.70;;;4.60;;
78489;SDS011;67776;52.012;4.736;2023-07-30T06:23:50;22.40;;;4.30;;
78489;SDS011;67776;52.012;4.736;2023-07-30T06:26:16;19.93;;;4.13;;
78489;SDS011;67776;52.012;4.736;2023-07-30T06:28:41;20.73;;;5.00;;
78489;SDS011;67776;52.012;4.736;2023-07-30T06:31:06;15.47;;;3.60;;
78489;SDS011;67776;52.012;4.736;2023-07-30T06:33:32;19.77;;;4.07;;
78489;SDS011;67776;52.012;4.736;2023-07-30T06:35:57;21.30;;;4.50;;
78489;SDS011;67776;52.012;4.736;2023-07-30T06:38:22;16.60;;;4.00;;
78489;SDS011;67776;52.012;4.736;2023-07-30T06:40:48;22.43;;;4.20;;
78489;SDS011;67776;52.012;4.736;2023-07-30T06:43:13;17.50;;;3.90;;
78489;SDS011;67776;52.012;4.736;2023-07-30T06:45:38;17.40;;;3.10;;
78489;SDS011;67776;52.012;4.736;2023-07-30T06:48:04;19.40;;;4.07;;
78489;SDS011;67776;52.012;4.736;2023-07-30T06:50:29;20.58;;;3.45;;
78489;SDS011;67776;52.012;4.736;2023-07-30T06:52:55;14.43;;;3.13;;
78489;SDS011;67776;52.012;4.736;2023-07-30T06:55:20;17.23;;;3.23;;
78489;SDS011;67776;52.012;4.736;2023-07-30T06:57:45;17.53;;;3.50;;
78489;SDS011;67776;52.012;4.736;2023-07-30T07:00:11;18.43;;;3.30;;
78489;SDS011;67776;52.012;4.736;2023-07-30T07:02:37;19.27;;;3.67;;
78489;SDS011;67776;52.012;4.736;2023-07-30T07:05:02;21.13;;;3.40;;
78489;SDS011;67776;52.012;4.736;2023-07-30T07:07:27;16.57;;;3.30;;
78489;SDS011;67776;52.012;4.736;2023-07-30T07:09:53;13.43;;;3.13;;
78489;SDS011;67776;52.012;4.736;2023-07-30T07:12:18;16.87;;;3.27;;
78489;SDS011;67776;52.012;4.736;2023-07-30T07:14:43;19.00;;;3.67;;
78489;SDS011;67776;52.012;4.736;2023-07-30T07:17:09;15.93;;;3.10;;
78489;SDS011;67776;52.012;4.736;2023-07-30T07:19:34;17.97;;;3.83;;
78489;SDS011;67776;52.012;4.736;2023-07-30T07:22:02;15.27;;;3.38;;
78489;SDS011;67776;52.012;4.736;2023-07-30T07:24:31;15.25;;;3.80;;
78489;SDS011;67776;52.012;4.736;2023-07-30T07:26:56;16.23;;;3.53;;
78489;SDS011;67776;52.012;4.736;2023-07-30T07:29:22;19.70;;;3.83;;
78489;SDS011;67776;52.012;4.736;2023-07-30T07:31:47;21.70;;;4.03;;
78489;SDS011;67776;52.012;4.736;2023-07-30T07:34:13;19.77;;;3.60;;
78489;SDS011;67776;52.012;4.736;2023-07-30T07:36:38;18.33;;;3.55;;
78489;SDS011;67776;52.012;4.736;2023-07-30T07:39:04;14.07;;;4.17;;
78489;SDS011;67776;52.012;4.736;2023-07-30T07:41:29;18.77;;;4.83;;
78489;SDS011;67776;52.012;4.736;2023-07-30T07:43:54;17.20;;;4.63;;
78489;SDS011;67776;52.012;4.736;2023-07-30T07:46:20;25.38;;;5.10;;
78489;SDS011;67776;52.012;4.736;2023-07-30T07:48:45;19.67;;;6.40;;
78489;SDS011;67776;52.012;4.736;2023-07-30T07:51:11;15.77;;;4.57;;
78489;SDS011;67776;52.012;4.736;2023-07-30T07:53:37;16.02;;;4.85;;
78489;SDS011;67776;52.012;4.736;2023-07-30T07:56:02;20.00;;;4.83;;
78489;SDS011;67776;52.012;4.736;2023-07-30T07:58:28;15.93;;;4.03;;
78489;SDS011;67776;52.012;4.736;2023-07-30T08:00:55;18.07;;;4.00;;
78489;SDS011;67776;52.012;4.736;2023-07-30T08:03:21;14.90;;;3.88;;
78489;SDS011;67776;52.012;4.736;2023-07-30T08:05:46;17.25;;;3.40;;
78489;SDS011;67776;52.012;4.736;2023-07-30T08:08:12;17.87;;;4.17;;
78489;SDS011;67776;52.012;4.736;2023-07-30T08:10:38;15.93;;;3.50;;
78489;SDS011;67776;52.012;4.736;2023-07-30T08:13:04;18.65;;;4.03;;
78489;SDS011;67776;52.012;4.736;2023-07-30T08:15:30;17.60;;;4.23;;
78489;SDS011;67776;52.012;4.736;2023-07-30T08:17:55;12.93;;;3.00;;
78489;SDS011;67776;52.012;4.736;2023-07-30T08:20:20;12.00;;;3.17;;
78489;SDS011;67776;52.012;4.736;2023-07-30T08:22:45;13.68;;;2.92;;
78489;SDS011;67776;52.012;4.736;2023-07-30T08:25:11;16.13;;;4.67;;
78489;SDS011;67776;52.012;4.736;2023-07-30T08:27:36;12.50;;;3.80;;
78489;SDS011;67776;52.012;4.736;2023-07-30T08:30:02;10.53;;;3.37;;
78489;SDS011;67776;52.012;4.736;2023-07-30T08:32:27;11.40;;;3.25;;
78489;SDS011;67776;52.012;4.736;2023-07-30T08:34:56;15.77;;;2.53;;
78489;SDS011;67776;52.012;4.736;2023-07-30T08:37:21;14.27;;;3.20;;
78489;SDS011;67776;52.012;4.736;2023-07-30T08:39:47;10.33;;;2.10;;
78489;SDS011;67776;52.012;4.736;2023-07-30T08:42:12;11.43;;;2.03;;
78489;SDS011;67776;52.012;4.736;2023-07-30T08:44:38;8.37;;;1.83;;
78489;SDS011;67776;52.012;4.736;2023-07-30T08:47:03;10.83;;;2.47;;
78489;SDS011;67776;52.012;4.736;2023-07-30T08:49:29;5.97;;;1.75;;
78489;SDS011;67776;52.012;4.736;2023-07-30T08:51:58;8.10;;;1.50;;
78489;SDS011;67776;52.012;4.736;2023-07-30T08:54:24;10.13;;;1.80;;
78489;SDS011;67776;52.012;4.736;2023-07-30T08:56:52;10.27;;;2.40;;
78489;SDS011;67776;52.012;4.736;2023-07-30T08:59:18;9.25;;;2.10;;
78489;SDS011;67776;52.012;4.736;2023-07-30T09:01:46;6.75;;;1.80;;
78489;SDS011;67776;52.012;4.736;2023-07-30T09:04:14;7.82;;;1.80;;
78489;SDS011;67776;52.012;4.736;2023-07-30T09:06:42;9.40;;;2.03;;
78489;SDS011;67776;52.012;4.736;2023-07-30T09:09:09;8.77;;;2.20;;
78489;SDS011;67776;52.012;4.736;2023-07-30T09:11:36;9.43;;;2.10;;
78489;SDS011;67776;52.012;4.736;2023-07-30T09:14:02;8.75;;;1.98;;
78489;SDS011;67776;52.012;4.736;2023-07-30T09:16:27;12.50;;;2.37;;
78489;SDS011;67776;52.012;4.736;2023-07-30T09:18:53;7.73;;;2.03;;
78489;SDS011;67776;52.012;4.736;2023-07-30T09:21:19;10.13;;;2.10;;
78489;SDS011;67776;52.012;4.736;2023-07-30T09:23:53;14.75;;;2.45;;
78489;SDS011;67776;52.012;4.736;2023-07-30T09:26:19;8.77;;;2.10;;
78489;SDS011;67776;52.012;4.736;2023-07-30T09:28:44;9.07;;;2.27;;
78489;SDS011;67776;52.012;4.736;2023-07-30T09:31:10;9.03;;;2.40;;
78489;SDS011;67776;52.012;4.736;2023-07-30T09:33:39;9.17;;;2.10;;
78489;SDS011;67776;52.012;4.736;2023-07-30T09:36:07;10.07;;;2.67;;
78489;SDS011;67776;52.012;4.736;2023-07-30T09:38:40;9.07;;;2.20;;
78489;SDS011;67776;52.012;4.736;2023-07-30T09:41:07;7.13;;;1.50;;
78489;SDS011;67776;52.012;4.736;2023-07-30T09:43:34;8.60;;;2.15;;
78489;SDS011;67776;52.012;4.736;2023-07-30T09:46:03;9.07;;;2.08;;
78489;SDS011;67776;52.012;4.736;2023-07-30T09:48:31;6.37;;;2.00;;
78489;SDS011;67776;52.012;4.736;2023-07-30T09:50:58;8.32;;;1.70;;
78489;SDS011;67776;52.012;4.736;2023-07-30T09:53:31;7.22;;;1.60;;
78489;SDS011;67776;52.012;4.736;2023-07-30T09:56:04;8.80;;;1.58;;
78489;SDS011;67776;52.012;4.736;2023-07-30T09:58:32;7.10;;;1.50;;
78489;SDS011;67776;52.012;4.736;2023-07-30T10:01:00;6.00;;;2.00;;
78489;SDS011;67776;52.012;4.736;2023-07-30T10:03:28;9.65;;;1.70;;
78489;SDS011;67776;52.012;4.736;2023-07-30T10:05:54;7.33;;;1.80;;
78489;SDS011;67776;52.012;4.736;2023-07-30T10:08:25;7.05;;;1.65;;
78489;SDS011;67776;52.012;4.736;2023-07-30T10:10:53;8.07;;;2.20;;
78489;SDS011;67776;52.012;4.736;2023-07-30T10:13:19;8.50;;;1.70;;
78489;SDS011;67776;52.012;4.736;2023-07-30T10:15:46;5.82;;;1.73;;
78489;SDS011;67776;52.012;4.736;2023-07-30T10:18:12;7.47;;;1.60;;
78489;SDS011;67776;52.012;4.736;2023-07-30T10:20:37;8.63;;;1.97;;
78489;SDS011;67776;52.012;4.736;2023-07-30T10:23:04;8.02;;;1.80;;
78489;SDS011;67776;52.012;4.736;2023-07-30T10:25:41;8.60;;;2.03;;
78489;SDS011;67776;52.012;4.736;2023-07-30T10:30:57;6.68;;;1.63;;
78489;SDS011;67776;52.012;4.736;2023-07-30T10:37:03;11.50;;;1.70;;
78489;SDS011;67776;52.012;4.736;2023-07-30T10:41:46;7.40;;;1.80;;
78489;SDS011;67776;52.012;4.736;2023-07-30T10:44:34;7.43;;;1.58;;
78489;SDS011;67776;52.012;4.736;2023-07-30T10:47:00;7.88;;;1.83;;
78489;SDS011;67776;52.012;4.736;2023-07-30T10:49:26;6.55;;;1.60;;
78489;SDS011;67776;52.012;4.736;2023-07-30T10:51:53;7.40;;;1.70;;
78489;SDS011;67776;52.012;4.736;2023-07-30T10:54:19;10.13;;;1.90;;
78489;SDS011;67776;52.012;4.736;2023-07-30T10:56:45;8.32;;;1.80;;
78489;SDS011;67776;52.012;4.736;2023-07-30T10:59:11;8.03;;;1.70;;
78489;SDS011;67776;52.012;4.736;2023-07-30T11:01:41;7.10;;;1.77;;
78489;SDS011;67776;52.012;4.736;2023-07-30T11:04:13;9.02;;;1.65;;
78489;SDS011;67776;52.012;4.736;2023-07-30T11:06:44;7.78;;;1.50;;
78489;SDS011;67776;52.012;4.736;2023-07-30T11:11:46;7.50;;;1.70;;
78489;SDS011;67776;52.012;4.736;2023-07-30T11:14:22;5.28;;;1.60;;
78489;SDS011;67776;52.012;4.736;2023-07-30T11:16:51;8.48;;;1.60;;
78489;SDS011;67776;52.012;4.736;2023-07-30T11:19:17;7.97;;;1.83;;
78489;SDS011;67776;52.012;4.736;2023-07-30T11:21:49;5.67;;;1.23;;
78489;SDS011;67776;52.012;4.736;2023-07-30T11:24:15;6.45;;;1.33;;
78489;SDS011;67776;52.012;4.736;2023-07-30T11:26:42;7.35;;;1.55;;
78489;SDS011;67776;52.012;4.736;2023-07-30T11:29:17;7.03;;;1.60;;
78489;SDS011;67776;52.012;4.736;2023-07-30T11:31:43;8.30;;;1.60;;
78489;SDS011;67776;52.012;4.736;2023-07-30T11:34:10;6.45;;;1.48;;
78489;SDS011;67776;52.012;4.736;2023-07-30T11:36:36;7.25;;;1.80;;
78489;SDS011;67776;52.012;4.736;2023-07-30T11:39:02;7.30;;;1.60;;
78489;SDS011;67776;52.012;4.736;2023-07-30T11:41:27;7.82;;;1.85;;
78489;SDS011;67776;52.012;4.736;2023-07-30T11:43:53;13.20;;;2.13;;
78489;SDS011;67776;52.012;4.736;2023-07-30T11:46:19;5.85;;;1.40;;
78489;SDS011;67776;52.012;4.736;2023-07-30T11:48:48;6.43;;;1.60;;
78489;SDS011;67776;52.012;4.736;2023-07-30T11:51:27;7.22;;;1.40;;
78489;SDS011;67776;52.012;4.736;2023-07-30T11:53:59;5.93;;;1.43;;
78489;SDS011;67776;52.012;4.736;2023-07-30T11:56:27;7.78;;;1.63;;
78489;SDS011;67776;52.012;4.736;2023-07-30T11:58:55;6.53;;;1.90;;
78489;SDS011;67776;52.012;4.736;2023-07-30T12:01:23;5.07;;;1.88;;
78489;SDS011;67776;52.012;4.736;2023-07-30T12:03:50;7.25;;;1.60;;
78489;SDS011;67776;52.012;4.736;2023-07-30T12:06:18;7.93;;;1.73;;
78489;SDS011;67776;52.012;4.736;2023-07-30T12:08:44;6.83;;;1.83;;
78489;SDS011;67776;52.012;4.736;2023-07-30T12:11:09;6.55;;;1.85;;
78489;SDS011;67776;52.012;4.736;2023-07-30T12:13:42;7.53;;;1.60;;
78489;SDS011;67776;52.012;4.736;2023-07-30T12:16:10;5.72;;;1.70;;
78489;SDS011;67776;52.012;4.736;2023-07-30T12:18:37;8.52;;;2.03;;
78489;SDS011;67776;52.012;4.736;2023-07-30T12:21:02;8.87;;;1.47;;
78489;SDS011;67776;52.012;4.736;2023-07-30T12:23:29;8.10;;;1.80;;
78489;SDS011;67776;52.012;4.736;2023-07-30T12:25:55;7.80;;;1.73;;
78489;SDS011;67776;52.012;4.736;2023-07-30T12:28:20;5.60;;;1.70;;
78489;SDS011;67776;52.012;4.736;2023-07-30T12:30:45;6.93;;;1.60;;
78489;SDS011;67776;52.012;4.736;2023-07-30T12:33:11;6.60;;;1.70;;
78489;SDS011;67776;52.012;4.736;2023-07-30T12:35:36;8.53;;;1.67;;
78489;SDS011;67776;52.012;4.736;2023-07-30T12:38:01;3.83;;;1.30;;
78489;SDS011;67776;52.012;4.736;2023-07-30T12:40:27;5.57;;;1.30;;
78489;SDS011;67776;52.012;4.736;2023-07-30T12:42:58;6.28;;;1.63;;
78489;SDS011;67776;52.012;4.736;2023-07-30T12:45:25;5.63;;;1.33;;
78489;SDS011;67776;52.012;4.736;2023-07-30T12:47:50;7.77;;;1.57;;
78489;SDS011;67776;52.012;4.736;2023-07-30T12:50:16;6.80;;;1.43;;
78489;SDS011;67776;52.012;4.736;2023-07-30T12:52:41;5.80;;;1.33;;
78489;SDS011;67776;52.012;4.736;2023-07-30T12:55:07;5.10;;;1.13;;
78489;SDS011;67776;52.012;4.736;2023-07-30T12:57:32;5.20;;;1.30;;
78489;SDS011;67776;52.012;4.736;2023-07-30T12:59:57;6.50;;;1.30;;
78489;SDS011;67776;52.012;4.736;2023-07-30T13:02:23;7.47;;;1.50;;
78489;SDS011;67776;52.012;4.736;2023-07-30T13:04:48;7.67;;;1.43;;
78489;SDS011;67776;52.012;4.736;2023-07-30T13:07:14;7.87;;;1.70;;
78489;SDS011;67776;52.012;4.736;2023-07-30T13:09:39;6.00;;;1.60;;
78489;SDS011;67776;52.012;4.736;2023-07-30T13:12:04;7.60;;;1.57;;
78489;SDS011;67776;52.012;4.736;2023-07-30T13:14:30;6.65;;;1.30;;
78489;SDS011;67776;52.012;4.736;2023-07-30T13:16:55;7.00;;;1.47;;
78489;SDS011;67776;52.012;4.736;2023-07-30T13:19:21;8.90;;;1.50;;
78489;SDS011;67776;52.012;4.736;2023-07-30T13:21:46;9.88;;;1.60;;
78489;SDS011;67776;52.012;4.736;2023-07-30T13:24:11;7.67;;;2.00;;
78489;SDS011;67776;52.012;4.736;2023-07-30T13:26:37;5.33;;;1.53;;
78489;SDS011;67776;52.012;4.736;2023-07-30T13:29:03;6.20;;;1.42;;
78489;SDS011;67776;52.012;4.736;2023-07-30T13:31:29;6.07;;;1.30;;
78489;SDS011;67776;52.012;4.736;2023-07-30T13:33:55;7.70;;;1.92;;
78489;SDS011;67776;52.012;4.736;2023-07-30T13:36:20;8.43;;;1.57;;
78489;SDS011;67776;52.012;4.736;2023-07-30T13:38:46;8.27;;;2.10;;
78489;SDS011;67776;52.012;4.736;2023-07-30T13:41:11;9.20;;;1.90;;
78489;SDS011;67776;52.012;4.736;2023-07-30T13:43:36;7.88;;;1.90;;
78489;SDS011;67776;52.012;4.736;2023-07-30T13:46:02;8.83;;;1.80;;
78489;SDS011;67776;52.012;4.736;2023-07-30T13:48:27;12.63;;;2.70;;
78489;SDS011;67776;52.012;4.736;2023-07-30T13:50:53;8.97;;;1.87;;
78489;SDS011;67776;52.012;4.736;2023-07-30T13:53:19;7.95;;;1.60;;
78489;SDS011;67776;52.012;4.736;2023-07-30T13:55:45;9.83;;;2.23;;
78489;SDS011;67776;52.012;4.736;2023-07-30T13:58:10;11.07;;;2.30;;
78489;SDS011;67776;52.012;4.736;2023-07-30T14:00:36;6.80;;;1.90;;
78489;SDS011;67776;52.012;4.736;2023-07-30T14:03:01;11.95;;;2.20;;
78489;SDS011;67776;52.012;4.736;2023-07-30T14:05:27;10.27;;;2.07;;
78489;SDS011;67776;52.012;4.736;2023-07-30T14:07:53;12.48;;;2.17;;
78489;SDS011;67776;52.012;4.736;2023-07-30T14:10:21;10.02;;;1.95;;
78489;SDS011;67776;52.012;4.736;2023-07-30T14:12:48;8.33;;;1.93;;
78489;SDS011;67776;52.012;4.736;2023-07-30T14:15:13;8.50;;;1.83;;
78489;SDS011;67776;52.012;4.736;2023-07-30T14:17:40;7.43;;;2.00;;
78489;SDS011;67776;52.012;4.736;2023-07-30T14:20:05;9.33;;;1.70;;
78489;SDS011;67776;52.012;4.736;2023-07-30T14:22:31;14.63;;;2.58;;
78489;SDS011;67776;52.012;4.736;2023-07-30T14:24:58;9.32;;;1.92;;
78489;SDS011;67776;52.012;4.736;2023-07-30T14:27:24;6.10;;;1.77;;
78489;SDS011;67776;52.012;4.736;2023-07-30T14:29:50;9.52;;;1.83;;
78489;SDS011;67776;52.012;4.736;2023-07-30T14:32:15;8.50;;;1.83;;
78489;SDS011;67776;52.012;4.736;2023-07-30T14:34:40;7.22;;;1.40;;
78489;SDS011;67776;52.012;4.736;2023-07-30T14:37:06;10.00;;;1.80;;
78489;SDS011;67776;52.012;4.736;2023-07-30T14:39:31;8.80;;;2.13;;
78489;SDS011;67776;52.012;4.736;2023-07-30T14:41:57;10.87;;;2.10;;
78489;SDS011;67776;52.012;4.736;2023-07-30T14:44:22;8.45;;;1.92;;
78489;SDS011;67776;52.012;4.736;2023-07-30T14:46:48;9.20;;;1.97;;